createdAt,value
2018-09-26T03:14:04.837Z,6.86
2018-09-26T03:15:04.837Z,6.79
2018-09-26T03:16:04.795Z,6.95
2018-09-26T03:17:04.799Z,6.81
2018-09-26T03:18:04.762Z,6.91
2018-09-26T03:19:04.755Z,6.81
2018-09-26T03:20:04.746Z,6.84
2018-09-26T03:21:04.736Z,6.80
2018-09-26T03:22:04.726Z,6.87
2018-09-26T03:23:04.733Z,6.76
2018-09-26T03:24:04.718Z,6.72
2018-09-26T03:25:04.700Z,6.80
2018-09-26T03:26:04.694Z,6.77
2018-09-26T03:27:04.683Z,6.81
2018-09-26T03:28:04.665Z,6.80
2018-09-26T03:29:04.693Z,6.84
2018-09-26T03:30:04.684Z,6.79
2018-09-26T03:31:04.640Z,6.83
2018-09-26T03:32:04.642Z,6.89
2018-09-26T03:33:04.625Z,6.86
2018-09-26T03:34:04.628Z,6.84
2018-09-26T03:35:04.634Z,6.77
2018-09-26T03:36:04.635Z,6.80
2018-09-26T03:37:04.636Z,6.71
2018-09-26T03:38:04.590Z,6.81
2018-09-26T03:39:04.594Z,6.77
2018-09-26T03:40:04.574Z,6.83
2018-09-26T03:41:04.570Z,6.68
2018-09-26T03:42:04.572Z,6.63
2018-09-26T03:43:04.540Z,6.66
2018-09-26T03:44:04.543Z,6.63
2018-09-26T03:45:04.529Z,6.63
2018-09-26T03:46:04.532Z,6.66
2018-09-26T03:47:04.515Z,6.68
2018-09-26T03:48:04.540Z,6.66
2018-09-26T03:49:04.503Z,6.65
2018-09-26T03:50:04.505Z,6.69
2018-09-26T03:51:04.485Z,6.86
2018-09-26T03:52:04.474Z,6.71
2018-09-26T03:53:04.477Z,6.89
2018-09-26T03:54:04.460Z,6.65
2018-09-26T03:55:04.452Z,6.68
2018-09-26T03:56:04.448Z,6.66
2018-09-26T03:57:04.451Z,6.68
2018-09-26T03:58:04.425Z,6.61
2018-09-26T03:59:04.424Z,6.62
2018-09-26T04:00:04.433Z,6.63
2018-09-26T04:01:04.402Z,6.69
2018-09-26T04:02:04.414Z,6.65
2018-09-26T04:03:04.390Z,6.56
2018-09-26T04:04:04.388Z,6.62
2018-09-26T04:05:04.450Z,6.65
2018-09-26T04:06:04.365Z,6.58
2018-09-26T04:07:04.362Z,6.68
2018-09-26T04:08:04.361Z,6.65
2018-09-26T04:09:04.337Z,6.65
2018-09-26T04:10:04.333Z,6.63
2018-09-26T04:11:04.336Z,6.73
2018-09-26T04:12:04.325Z,6.83
2018-09-26T04:13:04.372Z,6.68
2018-09-26T04:14:04.306Z,6.80
2018-09-26T04:15:04.293Z,6.81
2018-09-26T04:16:04.284Z,6.87
2018-09-26T04:17:04.284Z,6.81
2018-09-26T04:18:04.290Z,6.83
2018-09-26T04:19:04.263Z,6.84
2018-09-26T04:20:04.249Z,6.86
2018-09-26T04:21:04.272Z,6.87
2018-09-26T04:22:04.239Z,6.90
2018-09-26T04:23:04.233Z,6.80
2018-09-26T04:24:04.249Z,6.83
2018-09-26T04:25:04.227Z,6.89
2018-09-26T04:26:04.259Z,7.12
2018-09-26T04:27:04.319Z,7.58
2018-09-26T04:28:04.187Z,7.52
2018-09-26T04:29:04.241Z,7.29
2018-09-26T04:30:04.227Z,7.53
2018-09-26T04:31:13.787Z,7.49
2018-09-26T04:33:08.848Z,7.35
2018-09-26T04:35:29.512Z,6.94
2018-09-26T04:37:42.859Z,6.81
2018-09-26T04:38:42.868Z,6.65
2018-09-26T04:39:51.435Z,6.63
2018-09-26T04:41:36.333Z,6.48
2018-09-26T04:42:44.797Z,6.40
2018-09-26T04:44:29.596Z,6.51
2018-09-26T04:45:29.522Z,6.56
2018-09-26T04:46:29.572Z,6.50
2018-09-26T04:47:29.782Z,6.54
2018-09-26T04:48:29.537Z,6.41
2018-09-26T04:49:29.475Z,6.35
2018-09-26T04:50:29.467Z,6.47
2018-09-26T04:51:29.464Z,6.53
2018-09-26T04:52:29.456Z,6.50
2018-09-26T04:53:29.463Z,6.43
2018-09-26T04:54:29.471Z,6.71
2018-09-26T04:55:29.435Z,6.58
2018-09-26T04:56:29.446Z,6.54
2018-09-26T04:57:29.438Z,6.63
2018-09-26T04:58:29.412Z,6.76
2018-09-26T04:59:29.405Z,7.32
2018-09-26T05:00:29.394Z,7.59
2018-09-26T05:01:29.409Z,7.34
2018-09-26T05:02:29.374Z,7.44
2018-09-26T05:03:29.392Z,7.24
2018-09-26T05:04:29.393Z,7.19
2018-09-26T05:05:29.352Z,7.05
2018-09-26T05:06:29.386Z,6.95
2018-09-26T05:07:29.388Z,6.99
2018-09-26T05:08:29.328Z,6.91
2018-09-26T05:09:29.418Z,6.79
2018-09-26T05:10:29.318Z,6.79
2018-09-26T05:11:29.361Z,6.94
2018-09-26T05:12:29.342Z,7.01
2018-09-26T05:13:29.296Z,7.02
2018-09-26T05:14:29.293Z,7.22
2018-09-26T05:15:29.297Z,6.95
2018-09-26T05:16:29.311Z,6.97
2018-09-26T05:17:29.282Z,6.97
2018-09-26T05:18:29.271Z,6.79
2018-09-26T05:19:29.249Z,6.80
2018-09-26T05:20:29.234Z,6.86
2018-09-26T05:21:29.250Z,6.66
2018-09-26T05:22:29.222Z,6.62
2018-09-26T05:23:29.216Z,6.63
2018-09-26T05:24:29.210Z,6.69
2018-09-26T05:25:29.245Z,6.66
2018-09-26T05:26:29.225Z,6.69
2018-09-26T05:27:29.184Z,6.62
2018-09-26T05:28:29.209Z,6.71
2018-09-26T05:29:29.173Z,6.63
2018-09-26T05:30:29.215Z,6.71
2018-09-26T05:31:37.862Z,6.62
2018-09-26T05:33:23.640Z,6.63
2018-09-26T05:34:23.570Z,6.53
2018-09-26T05:35:23.548Z,6.71
2018-09-26T05:36:23.595Z,6.63
2018-09-26T05:37:23.562Z,6.80
2018-09-26T05:39:44.575Z,6.50
2018-09-26T05:40:44.563Z,6.50
2018-09-26T05:41:44.604Z,6.56
2018-09-26T05:42:44.601Z,6.90
2018-09-26T05:43:44.534Z,6.69
2018-09-26T05:44:44.492Z,6.76
2018-09-26T05:45:44.518Z,6.79
2018-09-26T05:46:44.526Z,6.90
2018-09-26T05:47:44.477Z,6.86
2018-09-26T05:48:44.479Z,6.71
2018-09-26T05:49:44.461Z,6.83
2018-09-26T05:52:06.501Z,6.95
2018-09-26T05:53:06.469Z,6.95
2018-09-26T05:54:06.518Z,6.99
2018-09-26T05:55:06.459Z,6.86
2018-09-26T05:56:06.541Z,6.77
2018-09-26T05:57:06.455Z,6.81
2018-09-26T05:58:06.429Z,6.71
2018-09-26T05:59:06.421Z,6.72
2018-09-26T06:00:06.417Z,6.76
2018-09-26T06:01:06.429Z,6.77
2018-09-26T06:02:06.392Z,6.90
2018-09-26T06:03:06.412Z,6.80
2018-09-26T06:04:06.387Z,6.95
2018-09-26T06:05:06.373Z,6.95
2018-09-26T06:06:06.368Z,6.91
2018-09-26T06:07:06.372Z,6.90
2018-09-26T06:08:06.371Z,7.09
2018-09-26T06:09:06.372Z,7.16
2018-09-26T06:10:06.425Z,7.24
2018-09-26T06:11:06.351Z,7.23
2018-09-26T06:12:06.342Z,7.22
2018-09-26T06:13:06.370Z,7.27
2018-09-26T06:14:06.316Z,7.41
2018-09-26T06:15:06.350Z,7.45
2018-09-26T06:16:06.325Z,7.37
2018-09-26T06:17:06.330Z,7.23
2018-09-26T06:18:06.284Z,7.37
2018-09-26T06:19:06.350Z,7.35
2018-09-26T06:20:06.315Z,7.60
2018-09-26T06:21:06.261Z,7.59
2018-09-26T06:22:06.264Z,7.69
2018-09-26T06:23:06.281Z,7.45
2018-09-26T06:24:06.276Z,7.42
2018-09-26T06:25:06.274Z,7.63
2018-09-26T06:26:06.263Z,7.69
2018-09-26T06:27:06.216Z,7.77
2018-09-26T06:28:06.209Z,7.77
2018-09-26T06:29:06.223Z,7.84
2018-09-26T06:30:06.223Z,7.79
2018-09-26T06:31:06.234Z,7.82
2018-09-26T06:32:06.179Z,7.82
2018-09-26T06:33:15.605Z,7.85
2018-09-26T06:34:59.644Z,7.81
2018-09-26T06:35:59.589Z,8.00
2018-09-26T06:36:59.551Z,7.99
2018-09-26T06:37:59.558Z,7.99
2018-09-26T06:38:59.543Z,8.07
2018-09-26T06:39:59.528Z,8.11
2018-09-26T06:40:59.531Z,8.10
2018-09-26T06:41:59.523Z,8.07
2018-09-26T06:42:59.510Z,8.08
2018-09-26T06:43:59.532Z,8.14
2018-09-26T06:44:59.504Z,8.17
2018-09-26T06:45:59.494Z,8.21
2018-09-26T06:46:59.489Z,8.15
2018-09-26T06:47:59.493Z,8.08
2018-09-26T06:48:59.492Z,8.10
2018-09-26T06:49:59.488Z,8.18
2018-09-26T06:50:59.486Z,8.28
2018-09-26T06:51:59.464Z,8.33
2018-09-26T06:52:59.440Z,8.32
2018-09-26T06:53:59.470Z,8.30
2018-09-26T06:54:59.427Z,8.29
2018-09-26T06:55:59.432Z,8.25
2018-09-26T06:56:59.431Z,8.26
2018-09-26T06:57:59.407Z,8.44
2018-09-26T06:58:59.398Z,8.42
2018-09-26T06:59:59.403Z,8.62
2018-09-26T07:00:59.388Z,8.60
2018-09-26T07:01:59.381Z,8.57
2018-09-26T07:02:59.376Z,8.57
2018-09-26T07:03:59.392Z,8.45
2018-09-26T07:04:59.387Z,8.42
2018-09-26T07:05:59.355Z,8.39
2018-09-26T07:06:59.404Z,8.29
2018-09-26T07:07:59.346Z,8.42
2018-09-26T07:08:59.408Z,8.55
2018-09-26T07:10:08.010Z,8.51
2018-09-26T07:11:52.768Z,8.45
2018-09-26T07:13:01.476Z,8.53
2018-09-26T07:14:46.153Z,8.53
2018-09-26T07:15:46.103Z,8.66
2018-09-26T07:18:07.173Z,8.84
2018-09-26T07:19:15.800Z,8.91
2018-09-26T07:21:00.579Z,8.97
2018-09-26T07:22:00.519Z,8.99
2018-09-26T07:23:00.523Z,9.10
2018-09-26T07:24:00.585Z,9.15
2018-09-26T07:25:00.500Z,9.25
2018-09-26T07:26:00.492Z,9.30
2018-09-26T07:27:00.482Z,9.27
2018-09-26T07:28:00.496Z,9.34
2018-09-26T07:29:00.618Z,9.42
2018-09-26T07:30:00.515Z,9.38
2018-09-26T07:31:00.492Z,9.46
2018-09-26T07:32:00.454Z,9.42
2018-09-26T07:33:00.440Z,9.38
2018-09-26T07:34:00.471Z,9.38
2018-09-26T07:35:00.469Z,9.35
2018-09-26T07:36:00.440Z,9.56
2018-09-26T07:37:00.437Z,9.49
2018-09-26T07:38:00.469Z,9.42
2018-09-26T07:39:00.442Z,9.57
2018-09-26T07:40:00.460Z,9.56
2018-09-26T07:41:00.446Z,9.57
2018-09-26T07:42:00.450Z,9.67
2018-09-26T07:43:00.390Z,9.67
2018-09-26T07:44:00.410Z,9.66
2018-09-26T07:45:00.418Z,9.64
2018-09-26T07:46:00.407Z,9.66
2018-09-26T07:47:00.423Z,9.60
2018-09-26T07:48:00.402Z,9.81
2018-09-26T07:49:00.409Z,9.73
2018-09-26T07:50:00.419Z,9.75
2018-09-26T07:51:00.420Z,9.66
2018-09-26T07:52:00.362Z,9.73
2018-09-26T07:53:00.402Z,9.76
2018-09-26T07:54:00.385Z,9.73
2018-09-26T07:55:00.367Z,9.82
2018-09-26T07:56:00.376Z,9.99
2018-09-26T07:57:00.358Z,9.93
2018-09-26T07:58:00.347Z,10.00
2018-09-26T07:59:00.347Z,10.04
2018-09-26T08:00:00.377Z,10.19
2018-09-26T08:01:00.311Z,10.18
2018-09-26T08:02:00.331Z,10.25
2018-09-26T08:03:00.312Z,10.21
2018-09-26T08:04:00.287Z,10.18
2018-09-26T08:05:00.292Z,10.21
2018-09-26T08:06:00.363Z,10.21
2018-09-26T08:07:00.270Z,10.19
2018-09-26T08:08:00.275Z,10.22
2018-09-26T08:09:00.273Z,10.28
2018-09-26T08:10:00.282Z,10.39
2018-09-26T08:11:00.289Z,10.40
2018-09-26T08:12:00.259Z,10.30
2018-09-26T08:13:00.286Z,10.42
2018-09-26T08:14:00.250Z,10.43
2018-09-26T08:15:00.253Z,10.43
2018-09-26T08:16:00.239Z,10.39
2018-09-26T08:17:00.244Z,10.32
2018-09-26T08:18:00.273Z,10.42
2018-09-26T08:19:00.205Z,10.37
2018-09-26T08:20:00.235Z,10.43
2018-09-26T08:21:00.211Z,10.34
2018-09-26T08:22:00.211Z,10.25
2018-09-26T08:24:22.371Z,10.43
2018-09-26T08:25:22.235Z,10.51
2018-09-26T08:26:30.849Z,10.62
2018-09-26T08:28:26.679Z,10.71
2018-09-26T08:29:16.648Z,10.60
2018-09-26T08:30:16.767Z,10.58
2018-09-26T08:32:37.664Z,10.58
2018-09-26T08:33:37.652Z,10.60
2018-09-26T08:34:37.614Z,10.62
2018-09-26T08:35:37.622Z,10.71
2018-09-26T08:36:37.612Z,10.73
2018-09-26T08:37:37.662Z,10.70
2018-09-26T08:38:37.623Z,10.65
2018-09-26T08:39:37.619Z,10.65
2018-09-26T08:40:37.590Z,10.59
2018-09-26T08:41:37.601Z,10.59
2018-09-26T08:42:37.567Z,10.65
2018-09-26T08:43:37.562Z,10.74
2018-09-26T08:44:37.579Z,10.73
2018-09-26T08:45:37.556Z,10.86
2018-09-26T08:46:37.575Z,10.83
2018-09-26T08:47:37.572Z,10.91
2018-09-26T08:48:37.592Z,10.92
2018-09-26T08:49:37.541Z,10.89
2018-09-26T08:50:37.585Z,10.95
2018-09-26T08:51:37.572Z,10.98
2018-09-26T08:52:37.600Z,10.88
2018-09-26T08:53:37.540Z,10.89
2018-09-26T08:54:37.557Z,10.74
2018-09-26T08:55:37.543Z,10.98
2018-09-26T08:56:37.518Z,11.02
2018-09-26T08:57:37.533Z,10.99
2018-09-26T08:58:37.540Z,11.06
2018-09-26T08:59:37.493Z,11.24
2018-09-26T09:00:37.529Z,11.20
2018-09-26T09:01:37.480Z,11.25
2018-09-26T09:02:37.472Z,11.31
2018-09-26T09:03:37.475Z,11.19
2018-09-26T09:04:37.478Z,11.20
2018-09-26T09:05:37.466Z,11.28
2018-09-26T09:06:37.490Z,11.43
2018-09-26T09:07:37.452Z,11.35
2018-09-26T09:08:37.455Z,11.28
2018-09-26T09:09:37.443Z,11.28
2018-09-26T09:10:37.450Z,11.32
2018-09-26T09:11:37.488Z,11.35
2018-09-26T09:12:37.437Z,11.47
2018-09-26T09:13:37.443Z,11.54
2018-09-26T09:14:37.552Z,11.44
2018-09-26T09:15:37.438Z,11.44
2018-09-26T09:16:37.450Z,11.31
2018-09-26T09:17:37.446Z,11.36
2018-09-26T09:18:37.415Z,11.35
2018-09-26T09:19:37.400Z,11.59
2018-09-26T09:20:37.428Z,11.68
2018-09-26T09:21:37.446Z,11.67
2018-09-26T09:22:37.403Z,11.53
2018-09-26T09:23:37.396Z,11.46
2018-09-26T09:24:37.389Z,11.46
2018-09-26T09:25:37.390Z,11.61
2018-09-26T09:26:37.379Z,11.68
2018-09-26T09:27:37.396Z,11.75
2018-09-26T09:28:37.362Z,11.94
2018-09-26T09:29:37.358Z,11.90
2018-09-26T09:30:37.372Z,12.13
2018-09-26T09:31:37.352Z,12.05
2018-09-26T09:32:37.354Z,12.21
2018-09-26T09:33:37.369Z,12.12
2018-09-26T09:34:37.349Z,11.99
2018-09-26T09:35:37.335Z,12.12
2018-09-26T09:36:37.393Z,12.08
2018-09-26T09:37:37.327Z,12.16
2018-09-26T09:38:37.335Z,12.19
2018-09-26T09:39:37.326Z,12.21
2018-09-26T09:40:37.344Z,12.21
2018-09-26T09:41:37.316Z,12.39
2018-09-26T09:42:37.322Z,12.37
2018-09-26T09:43:37.327Z,12.16
2018-09-26T09:44:37.346Z,12.09
2018-09-26T09:45:37.312Z,12.16
2018-09-26T09:46:44.970Z,12.20
2018-09-26T09:48:38.424Z,12.51
2018-09-26T09:50:51.814Z,12.48
2018-09-26T09:51:51.719Z,12.45
